Time;durP1;ratioP1;P1;durP2;ratioP2;P2;SDS_P1;SDS_P2;PMS_P1;PMS_P2;Temp;Humidity;BMP_temperature;BMP_pressure;BME280_temperature;BME280_humidity;BME280_pressure;Samples;Min_cycle;Max_cycle;Signal;HPM_P1;HPM_P2
2022/01/13 00:00:31;;;;;;;9.82;2.72;;;4.40;99.90;;;;;;5015061;28;20038;-85
2022/01/13 00:02:57;;;;;;;0.60;0.60;;;4.40;99.90;;;;;;5031896;28;20037;-85
2022/01/13 00:05:27;;;;;;;2.72;0.95;;;4.70;99.90;;;;;;5015422;28;20039;-86
2022/01/13 00:07:55;;;;;;;12.48;3.90;;;4.40;99.90;;;;;;5014997;28;20041;-85
2022/01/13 00:10:22;;;;;;;12.02;3.40;;;4.40;99.90;;;;;;5015558;28;20037;-85
2022/01/13 00:12:56;;;;;;;11.00;3.53;;;4.40;99.90;;;;;;5031645;28;20081;-85
2022/01/13 00:15:25;;;;;;;6.35;2.35;;;4.40;99.90;;;;;;5015858;28;20410;-86
2022/01/13 00:26:02;;;;;;;6.68;2.70;;;4.40;99.90;;;;;;5035535;28;20044;-87
2022/01/13 00:28:28;;;;;;;16.02;4.38;;;4.40;99.90;;;;;;5035449;28;20415;-85
2022/01/13 00:30:56;;;;;;;38.63;7.85;;;4.60;99.90;;;;;;5019045;28;20037;-86
2022/01/13 00:33:24;;;;;;;2.58;1.65;;;4.60;99.90;;;;;;5019083;28;20038;-85
2022/01/13 00:35:51;;;;;;;0.50;0.50;;;4.40;99.90;;;;;;5019138;28;20407;-86
2022/01/13 00:38:17;;;;;;;9.60;3.60;;;4.40;99.90;;;;;;5034882;28;20048;-85
2022/01/13 00:40:43;;;;;;;9.70;3.63;;;4.40;99.90;;;;;;5018867;28;20041;-85
2022/01/13 00:43:08;;;;;;;6.57;2.42;;;4.50;99.90;;;;;;5019190;28;20060;-85
2022/01/13 00:45:34;;;;;;;4.93;3.35;;;4.50;99.90;;;;;;5018672;28;20384;-86
2022/01/13 00:47:59;;;;;;;7.40;3.15;;;4.50;99.90;;;;;;5035015;28;20443;-85
2022/01/13 00:50:25;;;;;;;8.65;3.05;;;4.40;99.90;;;;;;5035313;28;20387;-85
2022/01/13 00:52:50;;;;;;;12.30;4.13;;;4.50;99.90;;;;;;5018740;28;20096;-85
2022/01/13 00:55:21;;;;;;;2.17;0.88;;;4.50;99.90;;;;;;5018733;28;20494;-85
2022/01/13 00:57:47;;;;;;;65.60;7.63;;;4.70;99.90;;;;;;5034644;28;20047;-85
2022/01/13 01:00:13;;;;;;;8.40;3.22;;;4.50;99.90;;;;;;5018400;28;20044;-86
2022/01/13 01:02:39;;;;;;;3.10;2.00;;;4.50;99.90;;;;;;5018832;28;20033;-85
2022/01/13 01:05:05;;;;;;;7.70;3.90;;;4.50;99.90;;;;;;5018652;28;20041;-85
2022/01/13 01:07:30;;;;;;;5.57;1.77;;;4.50;99.90;;;;;;5018032;28;20073;-85
2022/01/13 01:09:58;;;;;;;34.85;4.20;;;5.00;99.90;;;;;;5018402;28;20503;-86
2022/01/13 01:12:24;;;;;;;7.15;1.65;;;4.50;99.90;;;;;;5018404;28;20041;-85
2022/01/13 01:14:55;;;;;;;3.45;1.83;;;4.50;99.90;;;;;;5034746;28;20041;-85
2022/01/13 01:17:21;;;;;;;9.20;4.10;;;4.50;99.90;;;;;;5017940;28;20041;-85
2022/01/13 01:19:50;;;;;;;9.73;4.13;;;4.50;99.90;;;;;;5018412;28;20099;-85
2022/01/13 01:22:38;;;;;;;18.00;4.68;;;4.60;99.90;;;;;;5018493;28;20030;-84
2022/01/13 01:27:38;;;;;;;7.47;2.22;;;4.60;99.90;;;;;;5033164;28;20050;-86
2022/01/13 01:30:11;;;;;;;5.85;1.15;;;4.50;99.90;;;;;;5018306;28;20124;-84
2022/01/13 01:32:38;;;;;;;57.70;5.07;;;4.60;99.90;;;;;;5018069;28;20430;-86
2022/01/13 01:35:12;;;;;;;5.28;2.35;;;4.60;99.90;;;;;;5034422;28;20037;-85
2022/01/13 01:37:39;;;;;;;1.40;1.10;;;4.60;99.90;;;;;;5017832;28;20516;-85
2022/01/13 01:40:06;;;;;;;2.67;2.03;;;4.60;99.90;;;;;;5017853;28;20037;-85
2022/01/13 01:42:32;;;;;;;16.95;3.15;;;4.50;99.90;;;;;;5034553;28;20554;-85
2022/01/13 01:44:59;;;;;;;1.05;0.95;;;4.60;99.90;;;;;;5017413;28;20155;-85
2022/01/13 01:47:28;;;;;;;1.38;1.05;;;4.60;99.90;;;;;;5017418;28;20069;-85
2022/01/13 01:49:58;;;;;;;5.85;2.28;;;4.90;99.90;;;;;;5017582;28;20126;-86
2022/01/13 01:52:26;;;;;;;8.15;3.72;;;4.60;99.90;;;;;;5017639;28;20041;-86
2022/01/13 01:54:52;;;;;;;4.88;2.13;;;4.60;99.90;;;;;;5017615;28;20129;-85
2022/01/13 01:57:20;;;;;;;2.00;0.95;;;4.50;99.90;;;;;;5033905;28;20470;-85
2022/01/13 01:59:46;;;;;;;31.45;5.40;;;4.60;99.90;;;;;;5033826;28;20038;-85
2022/01/13 02:02:14;;;;;;;15.27;2.05;;;4.60;99.90;;;;;;5033865;28;20486;-85
2022/01/13 02:04:40;;;;;;;13.57;4.15;;;4.60;99.90;;;;;;5017348;28;20076;-85
2022/01/13 02:07:07;;;;;;;8.30;1.98;;;4.50;99.90;;;;;;5017314;28;20484;-85
2022/01/13 02:09:36;;;;;;;3.30;1.33;;;4.60;99.90;;;;;;5017352;28;20044;-85
2022/01/13 02:12:07;;;;;;;6.03;2.58;;;5.00;99.90;;;;;;5017267;28;20133;-85
2022/01/13 02:14:36;;;;;;;36.53;4.13;;;4.60;99.90;;;;;;5016979;28;20132;-85
2022/01/13 02:17:10;;;;;;;7.00;2.58;;;4.60;99.90;;;;;;5016834;28;20037;-85
2022/01/13 02:19:39;;;;;;;1.17;0.82;;;4.60;99.90;;;;;;5017007;28;20041;-85
2022/01/13 02:22:04;;;;;;;4.18;2.35;;;4.60;99.90;;;;;;5016907;28;20037;-85
2022/01/13 02:24:30;;;;;;;14.32;4.53;;;4.50;99.90;;;;;;5017020;28;20041;-85
2022/01/13 02:26:56;;;;;;;6.78;2.47;;;4.60;99.90;;;;;;5016557;28;20076;-85
2022/01/13 02:29:22;;;;;;;1.88;1.38;;;4.60;99.90;;;;;;5016729;28;20086;-86
2022/01/13 02:31:48;;;;;;;3.25;2.30;;;4.60;99.90;;;;;;5016983;28;20103;-85
2022/01/13 02:34:13;;;;;;;1.70;1.30;;;4.60;99.90;;;;;;5033374;28;20037;-85
2022/01/13 02:36:41;;;;;;;1.75;0.85;;;4.60;99.90;;;;;;5032887;28;20049;-85
2022/01/13 02:39:06;;;;;;;9.05;2.30;;;4.60;99.90;;;;;;5016575;28;20126;-85
2022/01/13 02:41:32;;;;;;;6.93;2.65;;;4.50;99.90;;;;;;5016691;28;20076;-85
2022/01/13 02:43:59;;;;;;;7.00;2.40;;;4.60;99.90;;;;;;5016396;28;20045;-85
2022/01/13 02:49:04;;;;;;;6.70;1.95;;;4.50;99.90;;;;;;5033370;28;20045;-85
2022/01/13 02:51:30;;;;;;;8.43;3.13;;;4.70;99.90;;;;;;5016763;28;20041;-86
2022/01/13 02:53:56;;;;;;;3.00;2.10;;;4.50;99.90;;;;;;5016693;28;20057;-85
2022/01/13 02:56:22;;;;;;;1.35;1.25;;;4.50;99.90;;;;;;5016036;28;20077;-85
2022/01/13 02:58:48;;;;;;;32.75;2.70;;;4.50;99.90;;;;;;5016133;28;20045;-85
2022/01/13 03:01:14;;;;;;;11.57;3.90;;;4.50;99.90;;;;;;5016319;28;20044;-85
2022/01/13 03:03:41;;;;;;;9.45;2.53;;;4.40;99.90;;;;;;5032978;28;20073;-86
2022/01/13 03:06:08;;;;;;;0.30;0.30;;;4.50;99.90;;;;;;5015945;28;20041;-86
2022/01/13 03:08:34;;;;;;;25.83;4.05;;;4.50;99.90;;;;;;5016236;28;20495;-86
2022/01/13 03:11:00;;;;;;;3.20;2.35;;;4.50;99.90;;;;;;5016299;28;20083;-85
2022/01/13 03:13:28;;;;;;;8.55;2.75;;;4.50;99.90;;;;;;5032884;28;20445;-86
2022/01/13 03:15:54;;;;;;;3.13;1.63;;;4.50;99.90;;;;;;5016075;28;20083;-86
2022/01/13 03:18:19;;;;;;;15.32;2.65;;;4.50;99.90;;;;;;5015962;28;20064;-85
2022/01/13 03:20:45;;;;;;;8.38;2.97;;;4.70;99.90;;;;;;5016233;28;20045;-85
2022/01/13 03:23:15;;;;;;;30.13;3.25;;;4.40;99.90;;;;;;5016337;28;20443;-85
2022/01/13 03:25:44;;;;;;;1.00;0.90;;;4.40;99.90;;;;;;5016088;28;20087;-85
2022/01/13 03:28:15;;;;;;;26.48;4.10;;;4.40;99.90;;;;;;5015538;28;20087;-85
2022/01/13 03:30:41;;;;;;;6.95;2.97;;;4.40;99.90;;;;;;5015725;28;20124;-85
2022/01/13 03:33:07;;;;;;;30.38;4.05;;;4.40;99.90;;;;;;5032290;28;20520;-85
2022/01/13 03:35:33;;;;;;;9.35;4.15;;;4.40;99.90;;;;;;5016126;28;20088;-85
2022/01/13 03:37:59;;;;;;;4.72;2.25;;;4.40;99.90;;;;;;5015239;28;20130;-85
2022/01/13 03:40:26;;;;;;;4.95;2.28;;;4.60;99.90;;;;;;5032126;28;20491;-85
2022/01/13 03:42:53;;;;;;;7.80;3.42;;;4.40;99.90;;;;;;5015820;28;20044;-85
2022/01/13 03:45:22;;;;;;;9.55;1.90;;;4.40;99.90;;;;;;5015480;28;20037;-85
2022/01/13 03:47:47;;;;;;;14.95;2.65;;;4.40;99.90;;;;;;5015274;28;20041;-85
2022/01/13 03:50:13;;;;;;;0.40;0.40;;;4.40;99.90;;;;;;5014973;28;20041;-85
2022/01/13 03:53:03;;;;;;;23.13;3.63;;;4.40;99.90;;;;;;5031841;28;20124;-86
2022/01/13 03:55:35;;;;;;;14.40;5.35;;;4.40;99.90;;;;;;5015502;28;20048;-85
2022/01/13 03:58:38;;;;;;;4.82;3.97;;;4.40;99.90;;;;;;5015183;28;20045;-85
2022/01/13 04:01:51;;;;;;;12.57;2.65;;;4.40;99.90;;;;;;5015127;28;20049;-85
2022/01/13 04:04:17;;;;;;;2.20;1.50;;;4.40;99.90;;;;;;4940078;28;20078;-85
2022/01/13 04:06:45;;;;;;;5.68;2.72;;;4.40;99.90;;;;;;4955557;28;20471;-85
2022/01/13 04:09:23;;;;;;;3.60;1.90;;;4.40;99.90;;;;;;4979427;28;20088;-85
2022/01/13 04:11:51;;;;;;;1.00;0.80;;;4.40;99.90;;;;;;5031697;28;20037;-85
2022/01/13 04:14:26;;;;;;;10.45;4.05;;;4.50;99.90;;;;;;5015205;28;20033;-85
2022/01/13 04:16:51;;;;;;;0.50;0.50;;;4.40;99.90;;;;;;5031433;28;20076;-85
2022/01/13 04:19:17;;;;;;;5.72;1.83;;;4.40;99.90;;;;;;5015096;28;20542;-85
2022/01/13 04:21:43;;;;;;;3.38;2.17;;;4.40;99.90;;;;;;5031623;28;20045;-85
2022/01/13 04:24:12;;;;;;;2.25;1.52;;;4.40;99.90;;;;;;5015173;28;20453;-85
2022/01/13 04:26:43;;;;;;;7.50;3.33;;;4.40;99.90;;;;;;5014754;28;20041;-86
2022/01/13 04:31:35;;;;;;;4.38;1.60;;;4.40;99.90;;;;;;5031824;28;20099;-85
2022/01/13 04:34:01;;;;;;;5.30;1.38;;;4.40;99.90;;;;;;5031565;28;20055;-85
2022/01/13 04:36:27;;;;;;;1.83;1.20;;;4.40;99.90;;;;;;5014800;28;20038;-86
2022/01/13 04:38:52;;;;;;;1.75;1.27;;;4.40;99.90;;;;;;5015042;28;20050;-85
2022/01/13 04:41:29;;;;;;;2.30;0.90;;;4.30;99.90;;;;;;5015104;28;20132;-85
2022/01/13 04:43:54;;;;;;;72.68;7.90;;;4.30;99.90;;;;;;5014960;28;20033;-85
2022/01/13 04:46:20;;;;;;;5.45;2.88;;;4.40;99.90;;;;;;5014555;28;20087;-85
2022/01/13 04:48:45;;;;;;;28.35;2.42;;;4.30;99.90;;;;;;5031393;28;20495;-86
2022/01/13 04:51:11;;;;;;;1.67;1.55;;;4.30;99.90;;;;;;5014930;28;20511;-85
2022/01/13 04:53:37;;;;;;;5.47;1.95;;;4.30;99.90;;;;;;5014993;28;20498;-85
2022/01/13 04:56:09;;;;;;;8.50;2.50;;;4.30;99.90;;;;;;5030891;28;20101;-86
2022/01/13 04:58:35;;;;;;;2.10;1.13;;;4.30;99.90;;;;;;5014878;28;20080;-85
2022/01/13 05:01:00;;;;;;;11.55;3.90;;;4.30;99.90;;;;;;5014724;28;20065;-85
2022/01/13 05:03:45;;;;;;;8.68;2.50;;;4.30;99.90;;;;;;5010890;28;20044;-86
2022/01/13 05:06:12;;;;;;;2.95;1.55;;;4.30;99.90;;;;;;5033905;28;20049;-85
2022/01/13 05:08:38;;;;;;;3.95;2.10;;;4.20;99.90;;;;;;5034080;28;20111;-85
2022/01/13 05:11:04;;;;;;;8.98;2.45;;;4.20;99.90;;;;;;5034215;28;20033;-86
2022/01/13 05:13:30;;;;;;;2.50;1.17;;;4.30;99.90;;;;;;5033997;28;20407;-85
2022/01/13 05:15:55;;;;;;;12.05;2.40;;;4.20;99.90;;;;;;5017715;28;20037;-85
2022/01/13 05:18:49;;;;;;;21.27;4.68;;;4.30;99.90;;;;;;5017341;28;20448;-85
2022/01/13 05:21:18;;;;;;;3.10;1.92;;;4.20;99.90;;;;;;5033687;28;20494;-85
2022/01/13 05:23:43;;;;;;;7.18;3.42;;;4.70;99.90;;;;;;5017430;28;20124;-86
2022/01/13 05:26:10;;;;;;;6.10;2.47;;;4.20;99.90;;;;;;5016923;28;20080;-85
2022/01/13 05:28:36;;;;;;;11.10;2.92;;;4.20;99.90;;;;;;5017348;28;20091;-85
2022/01/13 05:31:02;;;;;;;9.77;1.98;;;4.30;99.90;;;;;;5017436;28;20037;-86
2022/01/13 05:33:27;;;;;;;1.45;0.80;;;4.20;99.90;;;;;;5033993;28;20156;-85
2022/01/13 05:35:53;;;;;;;3.40;1.70;;;4.30;99.90;;;;;;5033957;28;20033;-86
2022/01/13 05:38:19;;;;;;;7.97;3.80;;;4.30;99.90;;;;;;5049916;28;20037;-86
2022/01/13 05:40:44;;;;;;;2.75;1.48;;;4.20;99.90;;;;;;5050238;28;20041;-87
2022/01/13 05:43:10;;;;;;;6.40;1.60;;;4.30;99.90;;;;;;5017332;28;20436;-84
2022/01/13 05:45:36;;;;;;;102.97;9.02;;;4.30;99.90;;;;;;5033551;28;20126;-86
2022/01/13 05:48:03;;;;;;;14.40;2.60;;;4.20;99.90;;;;;;5016710;28;20056;-85
2022/01/13 05:50:30;;;;;;;1.77;1.38;;;4.20;99.90;;;;;;5016946;28;21786;-86
2022/01/13 05:52:56;;;;;;;0.30;0.30;;;4.20;99.90;;;;;;5033740;28;20094;-86
2022/01/13 05:55:22;;;;;;;5.30;1.90;;;4.20;99.90;;;;;;5033414;28;20033;-86
2022/01/13 05:57:48;;;;;;;27.10;2.85;;;4.20;99.90;;;;;;5016446;28;20128;-85
2022/01/13 06:00:17;;;;;;;17.35;3.88;;;4.20;99.90;;;;;;5016801;28;20129;-85
2022/01/13 06:02:43;;;;;;;4.93;2.53;;;4.40;99.90;;;;;;5033612;28;20041;-85
2022/01/13 06:05:09;;;;;;;34.42;4.65;;;4.20;99.90;;;;;;5016913;28;20029;-86
2022/01/13 06:07:35;;;;;;;4.43;1.58;;;4.20;99.90;;;;;;5016379;28;20057;-85
2022/01/13 06:10:02;;;;;;;3.20;1.42;;;4.20;99.90;;;;;;5016984;28;20045;-85
2022/01/13 06:12:37;;;;;;;11.77;3.78;;;4.50;99.90;;;;;;5016605;28;20068;-86
2022/01/13 06:15:09;;;;;;;7.00;3.10;;;4.20;99.90;;;;;;5032575;28;20156;-86
2022/01/13 06:17:35;;;;;;;8.32;3.20;;;4.20;99.90;;;;;;5016190;28;20056;-85
2022/01/13 06:20:01;;;;;;;2.67;2.05;;;4.20;99.90;;;;;;5032731;28;20041;-85
2022/01/13 06:22:27;;;;;;;1.65;1.10;;;4.20;99.90;;;;;;5016378;28;20045;-85
2022/01/13 06:24:53;;;;;;;13.40;2.63;;;4.10;99.90;;;;;;5016438;28;20044;-85
2022/01/13 06:27:21;;;;;;;27.80;2.58;;;4.20;99.90;;;;;;5032473;28;20116;-86
2022/01/13 06:29:47;;;;;;;5.40;2.58;;;4.20;99.90;;;;;;5016411;28;20072;-86
2022/01/13 06:32:12;;;;;;;11.25;2.35;;;4.40;99.90;;;;;;5033007;28;20046;-85
2022/01/13 06:34:38;;;;;;;22.83;3.38;;;4.10;99.90;;;;;;5016181;28;20100;-86
2022/01/13 06:37:04;;;;;;;1.58;1.13;;;4.20;99.90;;;;;;5032510;28;20030;-86
2022/01/13 06:39:29;;;;;;;11.57;2.65;;;4.20;99.90;;;;;;5016235;28;20083;-85
2022/01/13 06:41:55;;;;;;;7.30;2.78;;;4.20;99.90;;;;;;5032581;28;20103;-85
2022/01/13 06:44:20;;;;;;;1.73;0.90;;;4.20;99.90;;;;;;5032331;28;20506;-86
2022/01/13 06:46:46;;;;;;;2.78;1.48;;;4.30;99.90;;;;;;5032414;28;20087;-85
2022/01/13 06:49:11;;;;;;;15.18;2.05;;;4.10;99.90;;;;;;5049123;28;20453;-85
2022/01/13 06:51:37;;;;;;;21.30;4.75;;;4.20;99.90;;;;;;5049382;28;20498;-85
2022/01/13 06:54:02;;;;;;;2.08;1.23;;;4.20;99.90;;;;;;5032504;28;20045;-86
2022/01/13 06:56:29;;;;;;;8.18;2.80;;;4.10;99.90;;;;;;5031965;28;20045;-85
2022/01/13 06:58:55;;;;;;;7.35;3.63;;;4.10;99.90;;;;;;5031852;28;20052;-85
2022/01/13 07:01:23;;;;;;;1.38;1.10;;;4.20;99.90;;;;;;5031645;28;20120;-86
2022/01/13 07:03:49;;;;;;;16.65;3.63;;;4.20;99.90;;;;;;5031977;28;20033;-86
2022/01/13 07:06:14;;;;;;;5.45;3.92;;;4.10;99.90;;;;;;5031511;28;20514;-85
2022/01/13 07:08:40;;;;;;;12.38;3.15;;;4.10;99.90;;;;;;5031561;28;20033;-86
2022/01/13 07:11:05;;;;;;;5.32;2.78;;;4.40;99.90;;;;;;5031963;28;20510;-86
2022/01/13 07:13:32;;;;;;;4.30;2.45;;;4.10;99.90;;;;;;5031986;28;20037;-86
2022/01/13 07:16:00;;;;;;;13.63;3.92;;;4.20;99.90;;;;;;5031658;28;20037;-86
2022/01/13 07:18:29;;;;;;;24.15;4.22;;;4.20;99.90;;;;;;5014718;28;20040;-86
2022/01/13 07:20:56;;;;;;;4.20;2.00;;;4.10;99.90;;;;;;5031580;28;20518;-86
2022/01/13 07:23:22;;;;;;;3.38;1.80;;;4.20;99.90;;;;;;5031260;28;20114;-86
2022/01/13 07:25:48;;;;;;;7.65;3.70;;;4.20;99.90;;;;;;5014362;28;20079;-86
2022/01/13 07:28:13;;;;;;;19.73;5.03;;;4.20;99.90;;;;;;5031066;28;20044;-86
2022/01/13 07:30:39;;;;;;;3.20;1.75;;;4.20;99.90;;;;;;5014718;28;20033;-86
2022/01/13 07:33:04;;;;;;;11.48;3.80;;;4.20;99.90;;;;;;5031566;28;20128;-86
2022/01/13 07:35:30;;;;;;;4.15;1.85;;;4.20;99.90;;;;;;5031534;28;20095;-86
2022/01/13 07:37:56;;;;;;;10.00;2.65;;;4.20;99.90;;;;;;5031459;28;20067;-86
2022/01/13 07:40:21;;;;;;;6.72;3.33;;;4.20;99.90;;;;;;5031586;28;20112;-86
2022/01/13 07:42:47;;;;;;;14.40;3.90;;;4.40;99.90;;;;;;5048251;28;20120;-86
2022/01/13 07:45:15;;;;;;;5.60;2.25;;;4.20;99.90;;;;;;5014956;28;20125;-86
2022/01/13 07:47:41;;;;;;;5.70;2.88;;;4.20;99.90;;;;;;5047596;28;20034;-86
2022/01/13 07:50:09;;;;;;;0.40;0.40;;;4.20;99.90;;;;;;5031239;28;20090;-86
2022/01/13 07:52:35;;;;;;;8.15;3.53;;;4.20;99.90;;;;;;5031607;28;20049;-86
2022/01/13 07:55:01;;;;;;;8.30;1.73;;;4.20;99.90;;;;;;5015105;28;20049;-86
2022/01/13 07:57:26;;;;;;;5.18;2.53;;;4.20;99.90;;;;;;5014454;28;20490;-86
2022/01/13 07:59:56;;;;;;;9.40;2.90;;;4.20;99.90;;;;;;5014995;28;20037;-86
2022/01/13 08:02:22;;;;;;;5.78;3.35;;;4.20;99.90;;;;;;5015055;28;20116;-87
2022/01/13 08:04:49;;;;;;;4.03;2.28;;;4.20;99.90;;;;;;5015050;28;20079;-86
2022/01/13 08:07:15;;;;;;;2.17;1.77;;;4.20;99.90;;;;;;5030950;28;20516;-86
2022/01/13 08:09:40;;;;;;;3.33;1.15;;;4.30;99.90;;;;;;5031196;28;20044;-86
2022/01/13 08:12:06;;;;;;;6.82;2.83;;;4.30;99.90;;;;;;5031309;28;20037;-86
2022/01/13 08:14:32;;;;;;;5.78;2.78;;;4.30;99.90;;;;;;5014456;28;20095;-86
2022/01/13 08:17:00;;;;;;;28.33;4.45;;;4.30;99.90;;;;;;5014515;28;20038;-86
2022/01/13 08:22:09;;;;;;;1.45;1.35;;;4.40;99.90;;;;;;5047813;28;20045;-86
2022/01/13 08:24:35;;;;;;;10.25;3.63;;;4.30;99.90;;;;;;5031053;28;20411;-87
2022/01/13 08:27:01;;;;;;;3.13;1.45;;;4.30;99.90;;;;;;5030770;28;20092;-86
2022/01/13 08:29:26;;;;;;;20.17;3.42;;;4.30;99.90;;;;;;5030867;28;20069;-86
2022/01/13 08:31:52;;;;;;;6.15;3.75;;;4.30;99.90;;;;;;5030936;28;20045;-86
2022/01/13 08:34:17;;;;;;;5.55;2.45;;;4.40;99.90;;;;;;5030908;28;20509;-86
2022/01/13 08:36:44;;;;;;;8.30;3.50;;;4.40;99.90;;;;;;5031849;28;20040;-86
2022/01/13 08:39:10;;;;;;;9.27;3.25;;;4.40;99.90;;;;;;5034924;28;20452;-86
2022/01/13 08:41:36;;;;;;;3.92;1.80;;;4.40;99.90;;;;;;5034614;28;20037;-86
2022/01/13 08:44:01;;;;;;;2.33;1.80;;;4.40;99.90;;;;;;5018520;28;20092;-86
2022/01/13 08:46:27;;;;;;;5.28;2.60;;;4.40;99.90;;;;;;5018058;28;20474;-86
2022/01/13 08:48:53;;;;;;;3.17;1.70;;;4.40;99.90;;;;;;5018668;28;20034;-86
2022/01/13 08:51:19;;;;;;;15.23;2.75;;;4.40;99.90;;;;;;5018166;28;20038;-86
2022/01/13 08:53:45;;;;;;;4.57;1.48;;;4.80;99.90;;;;;;5018202;28;20505;-86
2022/01/13 08:56:11;;;;;;;18.38;3.15;;;4.80;99.90;;;;;;5017931;28;20036;-86
2022/01/13 08:58:37;;;;;;;7.45;3.08;;;4.50;99.90;;;;;;5018177;28;20048;-86
2022/01/13 09:01:03;;;;;;;22.38;2.95;;;4.50;99.90;;;;;;5017911;28;20029;-86
2022/01/13 09:03:29;;;;;;;62.42;4.93;;;4.60;99.90;;;;;;5034481;28;20403;-86
2022/01/13 09:05:54;;;;;;;11.55;3.10;;;4.60;99.90;;;;;;5034251;28;20049;-86
2022/01/13 09:08:20;;;;;;;2.70;1.95;;;4.60;99.90;;;;;;5034257;28;20033;-86
2022/01/13 09:10:46;;;;;;;5.00;2.65;;;4.60;99.90;;;;;;5034381;28;20043;-86
2022/01/13 09:13:16;;;;;;;3.40;1.75;;;4.70;99.90;;;;;;5034187;28;20130;-86
2022/01/13 09:15:47;;;;;;;8.57;4.45;;;4.60;99.90;;;;;;5034159;28;20045;-86
2022/01/13 09:18:32;;;;;;;8.80;3.13;;;4.70;99.90;;;;;;5033767;28;20092;-86
2022/01/13 09:20:58;;;;;;;9.63;2.88;;;4.70;99.90;;;;;;5034176;28;20048;-85
2022/01/13 09:23:23;;;;;;;5.70;2.33;;;4.70;99.90;;;;;;5050739;28;20041;-86
2022/01/13 09:25:49;;;;;;;4.20;2.00;;;4.70;99.90;;;;;;5034162;28;20041;-86
2022/01/13 09:28:15;;;;;;;10.73;3.80;;;4.80;99.90;;;;;;5033355;28;20025;-86
2022/01/13 09:30:41;;;;;;;10.02;3.75;;;4.80;99.90;;;;;;5017634;28;20052;-86
2022/01/13 09:33:07;;;;;;;8.85;3.40;;;4.90;99.90;;;;;;5033982;28;20041;-86
2022/01/13 09:35:34;;;;;;;31.67;6.30;;;4.90;99.90;;;;;;5033874;28;20042;-86
2022/01/13 09:38:01;;;;;;;7.20;2.72;;;4.80;99.90;;;;;;5050166;28;20411;-86
2022/01/13 09:40:27;;;;;;;3.50;2.47;;;4.90;99.90;;;;;;5033657;28;20505;-86
2022/01/13 09:42:54;;;;;;;8.85;3.47;;;4.90;99.90;;;;;;5033738;28;20091;-86
2022/01/13 09:45:20;;;;;;;7.82;3.17;;;4.90;99.90;;;;;;5033783;28;20124;-85
2022/01/13 09:47:47;;;;;;;8.50;2.08;;;4.90;99.90;;;;;;5032933;28;20045;-86
2022/01/13 09:50:17;;;;;;;2.35;1.77;;;4.90;99.90;;;;;;5050056;28;20041;-86
2022/01/13 09:52:44;;;;;;;3.53;1.33;;;4.90;99.90;;;;;;5033527;28;20052;-86
2022/01/13 09:55:11;;;;;;;3.28;2.00;;;5.00;99.90;;;;;;5033467;28;20497;-87
2022/01/13 09:57:42;;;;;;;7.68;3.17;;;5.00;99.90;;;;;;5033167;28;20041;-86
2022/01/13 10:00:08;;;;;;;25.13;3.47;;;5.00;99.90;;;;;;5050001;28;20049;-86
2022/01/13 10:02:34;;;;;;;4.82;2.50;;;5.10;99.90;;;;;;5033312;28;20407;-86
2022/01/13 10:05:00;;;;;;;13.90;3.90;;;5.00;99.90;;;;;;5050263;28;20034;-86
2022/01/13 10:07:42;;;;;;;12.63;4.53;;;5.10;99.90;;;;;;5032836;28;20073;-86
2022/01/13 10:10:14;;;;;;;9.20;3.08;;;5.50;99.90;;;;;;5033218;28;20049;-86
2022/01/13 10:12:42;;;;;;;6.20;2.63;;;5.50;99.90;;;;;;5033393;28;20509;-86
2022/01/13 10:18:03;;;;;;;6.88;3.92;;;5.10;99.90;;;;;;5029732;28;20610;-86
2022/01/13 10:20:30;;;;;;;2.47;1.73;;;5.20;99.90;;;;;;5013205;28;20054;-86
2022/01/13 10:23:09;;;;;;;23.40;6.20;;;5.20;99.90;;;;;;5013322;28;20038;-86
2022/01/13 10:25:41;;;;;;;4.10;2.45;;;5.20;99.90;;;;;;5013094;28;20173;-86
2022/01/13 10:28:14;;;;;;;1.42;1.27;;;5.20;99.90;;;;;;5012758;28;20041;-86
2022/01/13 10:30:40;;;;;;;0.50;0.50;;;5.30;99.90;;;;;;4996692;28;20042;-86
2022/01/13 10:33:21;;;;;;;6.82;2.38;;;5.30;99.90;;;;;;5013288;28;20045;-86
2022/01/13 10:35:51;;;;;;;2.95;1.98;;;5.30;99.90;;;;;;5013369;28;20038;-86
2022/01/13 10:38:17;;;;;;;5.25;2.15;;;5.40;99.90;;;;;;5015840;28;20044;-85
2022/01/13 10:40:47;;;;;;;4.50;2.40;;;5.30;99.90;;;;;;5016075;28;20041;-86
2022/01/13 10:43:16;;;;;;;9.88;2.80;;;5.40;99.90;;;;;;5032722;28;20052;-86
2022/01/13 10:45:43;;;;;;;10.95;3.92;;;5.50;99.90;;;;;;5032480;28;20063;-85
2022/01/13 10:48:25;;;;;;;10.35;4.13;;;5.30;99.90;;;;;;5015595;28;20151;-86
2022/01/13 10:50:59;;;;;;;9.45;3.17;;;5.40;99.90;;;;;;5016114;28;20048;-86
2022/01/13 10:53:25;;;;;;;8.90;2.78;;;5.40;99.90;;;;;;5032410;28;20053;-86
2022/01/13 10:55:55;;;;;;;4.63;2.75;;;5.40;99.90;;;;;;5015969;28;20041;-86
2022/01/13 10:58:27;;;;;;;9.45;3.28;;;5.60;99.90;;;;;;5015656;28;20499;-86
2022/01/13 11:00:54;;;;;;;16.33;5.32;;;5.40;99.90;;;;;;5015331;28;20041;-86
2022/01/13 11:03:22;;;;;;;10.63;4.15;;;5.40;99.90;;;;;;5015400;28;20041;-86
2022/01/13 11:06:00;;;;;;;2.85;1.35;;;5.30;99.90;;;;;;4996134;28;20484;-86
2022/01/13 11:08:40;;;;;;;3.42;1.90;;;5.40;99.90;;;;;;5012191;28;20053;-87
2022/01/13 11:11:15;;;;;;;37.38;5.93;;;5.40;99.90;;;;;;4995942;28;20053;-87
2022/01/13 11:13:54;;;;;;;18.65;5.47;;;5.30;99.90;;;;;;4996440;28;20446;-86
2022/01/13 11:16:24;;;;;;;6.30;3.42;;;5.30;99.90;;;;;;5011693;28;20088;-86
2022/01/13 11:18:50;;;;;;;7.50;2.78;;;5.30;99.90;;;;;;4996032;28;20046;-86
2022/01/13 11:21:16;;;;;;;9.00;2.97;;;5.30;99.90;;;;;;4995992;28;20038;-86
2022/01/13 11:23:45;;;;;;;3.80;2.38;;;5.30;99.90;;;;;;5012455;28;20042;-86
2022/01/13 11:26:14;;;;;;;6.85;2.88;;;5.30;99.90;;;;;;5010291;28;20379;-86
2022/01/13 11:28:40;;;;;;;12.70;4.53;;;5.30;99.90;;;;;;5014963;28;20137;-86
2022/01/13 11:31:10;;;;;;;3.80;1.85;;;5.40;99.90;;;;;;5031813;28;20037;-86
2022/01/13 11:33:38;;;;;;;9.05;3.13;;;5.30;99.90;;;;;;5031673;28;20053;-86
2022/01/13 11:36:06;;;;;;;6.07;2.90;;;5.40;99.90;;;;;;5048109;28;20052;-87
2022/01/13 11:38:32;;;;;;;21.90;4.38;;;5.30;99.90;;;;;;5031566;28;20045;-86
2022/01/13 11:41:03;;;;;;;8.27;3.28;;;5.40;99.90;;;;;;5031542;28;20060;-86
2022/01/13 11:43:43;;;;;;;24.30;5.13;;;5.40;99.90;;;;;;5031598;28;20052;-86
2022/01/13 11:46:21;;;;;;;3.65;1.65;;;5.40;99.90;;;;;;5047707;28;20085;-86
2022/01/13 11:49:08;;;;;;;27.98;5.43;;;5.40;99.90;;;;;;5031379;28;20037;-86
2022/01/13 11:51:47;;;;;;;15.23;5.68;;;5.40;99.90;;;;;;5015084;28;20034;-86
2022/01/13 11:54:31;;;;;;;7.00;3.70;;;5.40;99.90;;;;;;5031371;28;20467;-86
2022/01/13 11:57:12;;;;;;;16.55;6.22;;;5.40;99.90;;;;;;5031428;28;20067;-86
2022/01/13 11:59:38;;;;;;;17.67;3.88;;;5.40;99.90;;;;;;5031533;28;20048;-86
2022/01/13 12:02:24;;;;;;;21.80;5.00;;;5.40;99.90;;;;;;5031658;28;20072;-86
2022/01/13 12:05:17;;;;;;;7.70;4.75;;;5.40;99.90;;;;;;5031618;28;20368;-86
2022/01/13 12:07:59;;;;;;;21.55;6.57;;;5.50;99.90;;;;;;5047740;28;20048;-86
2022/01/13 12:10:24;;;;;;;10.15;3.78;;;5.40;99.90;;;;;;5031614;28;20042;-86
2022/01/13 12:12:51;;;;;;;25.63;6.20;;;5.50;99.90;;;;;;5046993;28;20041;-86
2022/01/13 12:15:19;;;;;;;10.02;4.32;;;5.50;99.90;;;;;;5014761;28;20041;-87
2022/01/13 12:18:01;;;;;;;3.75;1.92;;;5.40;99.90;;;;;;5030708;28;20042;-87
2022/01/13 12:23:45;;;;;;;12.57;4.78;;;5.50;99.90;;;;;;5020563;28;20051;-86
2022/01/13 12:26:33;;;;;;;14.45;5.10;;;5.50;99.90;;;;;;5014117;28;20128;-86
2022/01/13 12:29:17;;;;;;;8.27;3.70;;;5.50;99.90;;;;;;5014556;28;20065;-86
2022/01/13 12:31:52;;;;;;;12.23;4.00;;;5.50;99.90;;;;;;5014494;28;20465;-86
2022/01/13 12:34:21;;;;;;;11.30;5.10;;;5.60;99.90;;;;;;5031217;28;20571;-86
2022/01/13 12:36:46;;;;;;;15.10;5.38;;;5.50;99.90;;;;;;5013922;28;20034;-86
2022/01/13 12:39:15;;;;;;;9.27;3.70;;;5.60;99.90;;;;;;5030781;28;20048;-86
2022/01/13 12:42:01;;;;;;;13.13;5.35;;;5.50;99.90;;;;;;5031099;28;20037;-87
2022/01/13 12:47:13;;;;;;;6.90;2.30;;;5.50;99.90;;;;;;5047115;28;20175;-86
2022/01/13 12:49:39;;;;;;;16.38;5.30;;;5.60;99.90;;;;;;5030864;28;20132;-85
2022/01/13 12:52:06;;;;;;;6.57;2.80;;;5.60;99.90;;;;;;5030718;28;20499;-86
2022/01/13 12:54:31;;;;;;;8.30;3.58;;;5.60;99.90;;;;;;5031006;28;20121;-86
2022/01/13 12:57:03;;;;;;;7.95;3.10;;;5.60;99.90;;;;;;5030379;28;20138;-86
2022/01/13 12:59:28;;;;;;;18.80;7.28;;;5.60;99.90;;;;;;5030977;28;20053;-86
2022/01/13 13:01:57;;;;;;;13.88;4.13;;;5.60;99.90;;;;;;5030800;28;20510;-86
2022/01/13 13:04:23;;;;;;;13.43;5.57;;;5.60;99.90;;;;;;5014229;28;20083;-86
2022/01/13 13:06:49;;;;;;;18.85;5.75;;;5.60;99.90;;;;;;5014149;28;20041;-86
2022/01/13 13:09:20;;;;;;;7.82;3.75;;;5.70;99.90;;;;;;5030684;28;20457;-86
2022/01/13 13:11:49;;;;;;;8.63;3.65;;;5.70;99.90;;;;;;5014452;28;20042;-86
2022/01/13 13:14:22;;;;;;;6.93;3.03;;;5.70;99.90;;;;;;5014119;28;20745;-86
2022/01/13 13:16:51;;;;;;;5.57;1.58;;;5.70;99.90;;;;;;5030404;28;20099;-86
2022/01/13 13:19:17;;;;;;;10.52;4.55;;;5.70;99.90;;;;;;5013916;28;20120;-86
2022/01/13 13:21:49;;;;;;;21.58;6.78;;;5.90;99.90;;;;;;5030461;28;20494;-86
2022/01/13 13:24:15;;;;;;;6.60;2.75;;;5.80;99.90;;;;;;5015847;28;20044;-87
2022/01/13 13:26:43;;;;;;;10.98;4.10;;;5.90;99.90;;;;;;5033504;28;20038;-86